Wabash, Pennsylvania
Current Conditions -  °F | °C
As of 10:53 PM on Wednesday 28 Jan 2015 (Local Time) from KAGC Reporting Station
Haze Haze  
Wind Chill:   Ceiling: Unl
Heat Index: 16°   Visibility: 6mi
Dew Point:   Wind: 5mph
Humidity: 74%   Direction: 130°SE
Pressure: 30.25"   Gusts: NA
Location:  40.4193°N, 80.0502°W
Report Text: KAGC 290353Z 13004KT 6SM HZ CLR M09/M13 A3025 RMK AO2 SLP272 T10891128
Loading
Personal Weather Stations






























Interactive Weather Map New forecast layout! Learn more

10-Day Weather Forecast

Advertisements
Track Severe Weather on mobile